sensor_id;sensor_type;location;lat;lon;timestamp;temperature;humidity
17918;DHT22;9084;50.956;3.106;2023-02-07T00:01:21;2.50;99.90
17918;DHT22;9084;50.956;3.106;2023-02-07T00:03:47;2.50;99.90
17918;DHT22;9084;50.956;3.106;2023-02-07T00:06:27;2.40;99.90
17918;DHT22;9084;50.956;3.106;2023-02-07T00:08:56;2.50;99.90
17918;DHT22;9084;50.956;3.106;2023-02-07T00:11:23;2.40;99.90
17918;DHT22;9084;50.956;3.106;2023-02-07T00:13:51;2.40;99.90
17918;DHT22;9084;50.956;3.106;2023-02-07T00:16:20;2.40;99.90
17918;DHT22;9084;50.956;3.106;2023-02-07T00:18:47;2.30;99.90
17918;DHT22;9084;50.956;3.106;2023-02-07T00:21:17;2.30;99.90
17918;DHT22;9084;50.956;3.106;2023-02-07T00:23:44;2.20;99.90
17918;DHT22;9084;50.956;3.106;2023-02-07T00:26:13;2.20;99.90
17918;DHT22;9084;50.956;3.106;2023-02-07T00:28:41;2.20;99.90
17918;DHT22;9084;50.956;3.106;2023-02-07T00:33:38;2.10;99.90
17918;DHT22;9084;50.956;3.106;2023-02-07T00:36:06;2.10;99.90
17918;DHT22;9084;50.956;3.106;2023-02-07T00:38:32;2.10;99.90
17918;DHT22;9084;50.956;3.106;2023-02-07T00:40:58;2.10;99.90
17918;DHT22;9084;50.956;3.106;2023-02-07T00:43:26;2.00;99.90
17918;DHT22;9084;50.956;3.106;2023-02-07T00:45:54;2.10;99.90
17918;DHT22;9084;50.956;3.106;2023-02-07T00:48:20;2.00;99.90
17918;DHT22;9084;50.956;3.106;2023-02-07T00:50:48;2.00;99.90
17918;DHT22;9084;50.956;3.106;2023-02-07T00:53:18;2.00;99.90
17918;DHT22;9084;50.956;3.106;2023-02-07T00:55:46;1.90;99.90
17918;DHT22;9084;50.956;3.106;2023-02-07T00:58:12;1.90;99.90
17918;DHT22;9084;50.956;3.106;2023-02-07T01:00:40;1.90;99.90
17918;DHT22;9084;50.956;3.106;2023-02-07T01:03:05;1.90;99.90
17918;DHT22;9084;50.956;3.106;2023-02-07T01:05:31;1.80;99.90
17918;DHT22;9084;50.956;3.106;2023-02-07T01:07:59;1.80;99.90
17918;DHT22;9084;50.956;3.106;2023-02-07T01:10:25;1.80;99.90
17918;DHT22;9084;50.956;3.106;2023-02-07T01:12:51;1.80;99.90
17918;DHT22;9084;50.956;3.106;2023-02-07T01:15:17;1.80;99.90
17918;DHT22;9084;50.956;3.106;2023-02-07T01:17:45;1.80;99.90
17918;DHT22;9084;50.956;3.106;2023-02-07T01:20:11;1.80;99.90
17918;DHT22;9084;50.956;3.106;2023-02-07T01:22:40;1.70;99.90
17918;DHT22;9084;50.956;3.106;2023-02-07T01:25:09;1.70;99.90
17918;DHT22;9084;50.956;3.106;2023-02-07T01:27:35;1.80;99.90
17918;DHT22;9084;50.956;3.106;2023-02-07T01:30:01;1.80;99.90
17918;DHT22;9084;50.956;3.106;2023-02-07T01:32:33;1.80;99.90
17918;DHT22;9084;50.956;3.106;2023-02-07T01:34:59;1.80;99.90
17918;DHT22;9084;50.956;3.106;2023-02-07T01:37:24;1.80;99.90
17918;DHT22;9084;50.956;3.106;2023-02-07T01:39:52;1.80;99.90
17918;DHT22;9084;50.956;3.106;2023-02-07T01:42:19;1.90;99.90
17918;DHT22;9084;50.956;3.106;2023-02-07T01:45:05;1.90;99.90
17918;DHT22;9084;50.956;3.106;2023-02-07T01:47:34;1.80;99.90
17918;DHT22;9084;50.956;3.106;2023-02-07T01:50:02;1.90;99.90
17918;DHT22;9084;50.956;3.106;2023-02-07T01:52:40;1.80;99.90
17918;DHT22;9084;50.956;3.106;2023-02-07T01:55:10;1.80;99.90
17918;DHT22;9084;50.956;3.106;2023-02-07T01:57:36;1.70;99.90
17918;DHT22;9084;50.956;3.106;2023-02-07T02:00:04;1.80;99.90
17918;DHT22;9084;50.956;3.106;2023-02-07T02:02:32;1.70;99.90
17918;DHT22;9084;50.956;3.106;2023-02-07T02:04:58;1.70;99.90
17918;DHT22;9084;50.956;3.106;2023-02-07T02:07:28;1.70;99.90
17918;DHT22;9084;50.956;3.106;2023-02-07T02:09:54;1.70;99.90
17918;DHT22;9084;50.956;3.106;2023-02-07T02:29:49;1.60;99.90
17918;DHT22;9084;50.956;3.106;2023-02-07T02:33:06;1.60;99.90
17918;DHT22;9084;50.956;3.106;2023-02-07T02:38:25;1.60;99.90
17918;DHT22;9084;50.956;3.106;2023-02-07T02:41:02;1.60;99.90
17918;DHT22;9084;50.956;3.106;2023-02-07T02:44:00;1.60;99.90
17918;DHT22;9084;50.956;3.106;2023-02-07T02:46:30;1.60;99.90
17918;DHT22;9084;50.956;3.106;2023-02-07T02:49:03;1.60;99.90
17918;DHT22;9084;50.956;3.106;2023-02-07T02:51:30;1.70;99.90
17918;DHT22;9084;50.956;3.106;2023-02-07T02:53:59;1.70;99.90
17918;DHT22;9084;50.956;3.106;2023-02-07T02:59:44;1.70;99.90
17918;DHT22;9084;50.956;3.106;2023-02-07T03:02:34;1.70;99.90
17918;DHT22;9084;50.956;3.106;2023-02-07T03:10:18;1.60;99.90
17918;DHT22;9084;50.956;3.106;2023-02-07T03:18:13;1.60;99.90
17918;DHT22;9084;50.956;3.106;2023-02-07T03:20:53;1.70;99.90
17918;DHT22;9084;50.956;3.106;2023-02-07T03:23:21;1.70;99.90
17918;DHT22;9084;50.956;3.106;2023-02-07T03:25:50;1.70;99.90
17918;DHT22;9084;50.956;3.106;2023-02-07T03:28:20;1.70;99.90
17918;DHT22;9084;50.956;3.106;2023-02-07T03:30:50;1.60;99.90
17918;DHT22;9084;50.956;3.106;2023-02-07T03:33:17;1.70;99.90
17918;DHT22;9084;50.956;3.106;2023-02-07T03:35:51;1.70;99.90
17918;DHT22;9084;50.956;3.106;2023-02-07T03:38:18;1.70;99.90
17918;DHT22;9084;50.956;3.106;2023-02-07T03:40:55;1.70;99.90
17918;DHT22;9084;50.956;3.106;2023-02-07T03:43:32;1.70;99.90
17918;DHT22;9084;50.956;3.106;2023-02-07T03:45:59;1.70;99.90
17918;DHT22;9084;50.956;3.106;2023-02-07T03:48:25;1.80;99.90
17918;DHT22;9084;50.956;3.106;2023-02-07T03:50:51;1.80;99.90
17918;DHT22;9084;50.956;3.106;2023-02-07T03:53:19;1.80;99.90
17918;DHT22;9084;50.956;3.106;2023-02-07T03:55:45;1.80;99.90
17918;DHT22;9084;50.956;3.106;2023-02-07T03:58:10;1.80;99.90
17918;DHT22;9084;50.956;3.106;2023-02-07T04:00:36;1.80;99.90
17918;DHT22;9084;50.956;3.106;2023-02-07T04:03:03;1.70;99.90
17918;DHT22;9084;50.956;3.106;2023-02-07T04:05:33;1.70;99.90
17918;DHT22;9084;50.956;3.106;2023-02-07T04:08:01;1.80;99.90
17918;DHT22;9084;50.956;3.106;2023-02-07T04:10:27;1.80;99.90
17918;DHT22;9084;50.956;3.106;2023-02-07T04:12:55;1.80;99.90
17918;DHT22;9084;50.956;3.106;2023-02-07T04:15:20;1.70;99.90
17918;DHT22;9084;50.956;3.106;2023-02-07T04:17:51;1.70;99.90
17918;DHT22;9084;50.956;3.106;2023-02-07T04:20:17;1.70;99.90
17918;DHT22;9084;50.956;3.106;2023-02-07T04:22:45;1.70;99.90
17918;DHT22;9084;50.956;3.106;2023-02-07T04:25:13;1.70;99.90
17918;DHT22;9084;50.956;3.106;2023-02-07T04:27:39;1.70;99.90
17918;DHT22;9084;50.956;3.106;2023-02-07T04:30:05;1.60;99.90
17918;DHT22;9084;50.956;3.106;2023-02-07T04:32:30;1.60;99.90
17918;DHT22;9084;50.956;3.106;2023-02-07T04:34:56;1.60;99.90
17918;DHT22;9084;50.956;3.106;2023-02-07T04:37:22;1.50;99.90
17918;DHT22;9084;50.956;3.106;2023-02-07T04:39:50;1.60;99.90
17918;DHT22;9084;50.956;3.106;2023-02-07T04:42:15;1.40;99.90
17918;DHT22;9084;50.956;3.106;2023-02-07T04:44:43;1.40;99.90
17918;DHT22;9084;50.956;3.106;2023-02-07T04:47:11;1.40;99.90
17918;DHT22;9084;50.956;3.106;2023-02-07T04:49:37;1.50;99.90
17918;DHT22;9084;50.956;3.106;2023-02-07T04:52:02;1.50;99.90
17918;DHT22;9084;50.956;3.106;2023-02-07T04:54:30;1.50;99.90
17918;DHT22;9084;50.956;3.106;2023-02-07T04:57:01;1.50;99.90
17918;DHT22;9084;50.956;3.106;2023-02-07T04:59:28;1.40;99.90
17918;DHT22;9084;50.956;3.106;2023-02-07T05:01:56;1.30;99.90
17918;DHT22;9084;50.956;3.106;2023-02-07T05:04:22;1.30;99.90
17918;DHT22;9084;50.956;3.106;2023-02-07T05:06:50;1.30;99.90
17918;DHT22;9084;50.956;3.106;2023-02-07T05:09:16;1.30;99.90
17918;DHT22;9084;50.956;3.106;2023-02-07T05:11:41;1.30;99.90
17918;DHT22;9084;50.956;3.106;2023-02-07T05:14:09;1.20;99.90
17918;DHT22;9084;50.956;3.106;2023-02-07T05:16:35;1.30;99.90
17918;DHT22;9084;50.956;3.106;2023-02-07T05:19:00;1.20;99.90
17918;DHT22;9084;50.956;3.106;2023-02-07T05:21:28;1.20;99.90
17918;DHT22;9084;50.956;3.106;2023-02-07T05:23:54;1.10;99.90
17918;DHT22;9084;50.956;3.106;2023-02-07T05:26:21;1.10;99.90
17918;DHT22;9084;50.956;3.106;2023-02-07T05:28:47;1.10;99.90
17918;DHT22;9084;50.956;3.106;2023-02-07T05:31:15;1.10;99.90
17918;DHT22;9084;50.956;3.106;2023-02-07T05:33:41;1.10;99.90
17918;DHT22;9084;50.956;3.106;2023-02-07T05:36:07;1.20;99.90
17918;DHT22;9084;50.956;3.106;2023-02-07T05:38:33;1.00;99.90
17918;DHT22;9084;50.956;3.106;2023-02-07T05:40:59;0.90;99.90
17918;DHT22;9084;50.956;3.106;2023-02-07T05:43:27;0.90;99.90
17918;DHT22;9084;50.956;3.106;2023-02-07T05:45:52;1.00;99.90
17918;DHT22;9084;50.956;3.106;2023-02-07T05:48:18;0.90;99.90
17918;DHT22;9084;50.956;3.106;2023-02-07T05:50:44;0.90;99.90
17918;DHT22;9084;50.956;3.106;2023-02-07T05:53:09;0.90;99.90
17918;DHT22;9084;50.956;3.106;2023-02-07T05:55:36;0.90;99.90
17918;DHT22;9084;50.956;3.106;2023-02-07T05:58:01;0.90;99.90
17918;DHT22;9084;50.956;3.106;2023-02-07T06:00:27;0.80;99.90
17918;DHT22;9084;50.956;3.106;2023-02-07T06:02:57;0.80;99.90
17918;DHT22;9084;50.956;3.106;2023-02-07T06:05:28;0.80;99.90
17918;DHT22;9084;50.956;3.106;2023-02-07T06:07:56;0.80;99.90
17918;DHT22;9084;50.956;3.106;2023-02-07T06:10:21;0.80;99.90
17918;DHT22;9084;50.956;3.106;2023-02-07T06:12:49;0.80;99.90
17918;DHT22;9084;50.956;3.106;2023-02-07T06:15:15;0.70;99.90
17918;DHT22;9084;50.956;3.106;2023-02-07T06:17:41;0.70;99.90
17918;DHT22;9084;50.956;3.106;2023-02-07T06:20:11;0.70;99.90
17918;DHT22;9084;50.956;3.106;2023-02-07T06:22:39;0.70;99.90
17918;DHT22;9084;50.956;3.106;2023-02-07T06:25:07;0.80;99.90
17918;DHT22;9084;50.956;3.106;2023-02-07T06:27:41;0.70;99.90
17918;DHT22;9084;50.956;3.106;2023-02-07T06:30:09;0.70;99.90
17918;DHT22;9084;50.956;3.106;2023-02-07T06:32:35;0.70;99.90
17918;DHT22;9084;50.956;3.106;2023-02-07T06:35:01;0.70;99.90
17918;DHT22;9084;50.956;3.106;2023-02-07T06:37:27;0.70;99.90
17918;DHT22;9084;50.956;3.106;2023-02-07T06:39:52;0.70;99.90
17918;DHT22;9084;50.956;3.106;2023-02-07T06:42:18;0.70;99.90
17918;DHT22;9084;50.956;3.106;2023-02-07T06:44:43;0.70;99.90
17918;DHT22;9084;50.956;3.106;2023-02-07T06:47:11;0.70;99.90
17918;DHT22;9084;50.956;3.106;2023-02-07T06:49:37;0.70;99.90
17918;DHT22;9084;50.956;3.106;2023-02-07T06:52:03;0.70;99.90
17918;DHT22;9084;50.956;3.106;2023-02-07T06:54:28;0.80;99.90
17918;DHT22;9084;50.956;3.106;2023-02-07T06:56:54;0.70;99.90
17918;DHT22;9084;50.956;3.106;2023-02-07T06:59:22;0.70;99.90
17918;DHT22;9084;50.956;3.106;2023-02-07T07:01:50;0.70;99.90
17918;DHT22;9084;50.956;3.106;2023-02-07T07:04:15;0.80;99.90
17918;DHT22;9084;50.956;3.106;2023-02-07T07:06:42;0.80;99.90
17918;DHT22;9084;50.956;3.106;2023-02-07T07:09:08;0.80;99.90
17918;DHT22;9084;50.956;3.106;2023-02-07T07:11:35;0.80;99.90
17918;DHT22;9084;50.956;3.106;2023-02-07T07:14:03;0.90;99.90
17918;DHT22;9084;50.956;3.106;2023-02-07T07:16:29;0.90;99.90
17918;DHT22;9084;50.956;3.106;2023-02-07T07:18:54;1.00;99.90
17918;DHT22;9084;50.956;3.106;2023-02-07T07:21:22;1.00;99.90
17918;DHT22;9084;50.956;3.106;2023-02-07T07:23:51;1.10;99.90
17918;DHT22;9084;50.956;3.106;2023-02-07T07:26:16;1.20;99.90
17918;DHT22;9084;50.956;3.106;2023-02-07T07:28:42;1.30;99.90
17918;DHT22;9084;50.956;3.106;2023-02-07T07:31:10;1.30;99.90
17918;DHT22;9084;50.956;3.106;2023-02-07T07:33:36;1.30;99.90
17918;DHT22;9084;50.956;3.106;2023-02-07T07:36:05;1.40;99.90
17918;DHT22;9084;50.956;3.106;2023-02-07T07:38:31;1.40;99.90
17918;DHT22;9084;50.956;3.106;2023-02-07T07:40:58;1.50;99.90
17918;DHT22;9084;50.956;3.106;2023-02-07T07:43:26;1.60;99.90
17918;DHT22;9084;50.956;3.106;2023-02-07T07:45:54;1.70;99.90
17918;DHT22;9084;50.956;3.106;2023-02-07T07:48:21;1.70;99.90
17918;DHT22;9084;50.956;3.106;2023-02-07T07:50:48;1.80;99.90
17918;DHT22;9084;50.956;3.106;2023-02-07T07:53:17;1.90;99.90
17918;DHT22;9084;50.956;3.106;2023-02-07T07:55:49;2.00;99.90
17918;DHT22;9084;50.956;3.106;2023-02-07T07:58:15;2.10;99.90
17918;DHT22;9084;50.956;3.106;2023-02-07T08:00:40;2.10;99.90
17918;DHT22;9084;50.956;3.106;2023-02-07T08:03:06;2.10;99.90
17918;DHT22;9084;50.956;3.106;2023-02-07T08:05:32;2.10;99.90
17918;DHT22;9084;50.956;3.106;2023-02-07T08:07:59;2.10;99.90
17918;DHT22;9084;50.956;3.106;2023-02-07T08:10:27;2.10;99.90
17918;DHT22;9084;50.956;3.106;2023-02-07T08:12:53;2.10;99.90
17918;DHT22;9084;50.956;3.106;2023-02-07T08:15:18;2.10;99.90
17918;DHT22;9084;50.956;3.106;2023-02-07T08:17:44;2.10;99.90
17918;DHT22;9084;50.956;3.106;2023-02-07T08:20:10;2.20;99.90
17918;DHT22;9084;50.956;3.106;2023-02-07T08:22:37;2.30;99.90
17918;DHT22;9084;50.956;3.106;2023-02-07T08:25:08;2.30;99.90
17918;DHT22;9084;50.956;3.106;2023-02-07T08:27:36;2.40;99.90
17918;DHT22;9084;50.956;3.106;2023-02-07T08:30:04;2.40;99.90
17918;DHT22;9084;50.956;3.106;2023-02-07T08:32:32;2.40;99.90
17918;DHT22;9084;50.956;3.106;2023-02-07T08:34:58;2.40;99.90
17918;DHT22;9084;50.956;3.106;2023-02-07T08:37:26;2.40;99.90
17918;DHT22;9084;50.956;3.106;2023-02-07T08:39:54;2.50;99.90
17918;DHT22;9084;50.956;3.106;2023-02-07T08:42:21;2.60;99.90
17918;DHT22;9084;50.956;3.106;2023-02-07T08:44:47;2.60;99.90
17918;DHT22;9084;50.956;3.106;2023-02-07T08:47:18;2.70;99.90
17918;DHT22;9084;50.956;3.106;2023-02-07T08:49:44;2.60;99.90
17918;DHT22;9084;50.956;3.106;2023-02-07T08:52:12;2.60;99.90
17918;DHT22;9084;50.956;3.106;2023-02-07T08:54:37;2.70;99.90
17918;DHT22;9084;50.956;3.106;2023-02-07T08:57:05;2.70;99.90
17918;DHT22;9084;50.956;3.106;2023-02-07T08:59:31;2.70;99.90
17918;DHT22;9084;50.956;3.106;2023-02-07T09:01:57;2.70;99.90
17918;DHT22;9084;50.956;3.106;2023-02-07T09:04:23;2.70;99.90
17918;DHT22;9084;50.956;3.106;2023-02-07T09:06:51;2.80;99.90
17918;DHT22;9084;50.956;3.106;2023-02-07T09:09:16;2.90;99.90
17918;DHT22;9084;50.956;3.106;2023-02-07T09:11:47;2.90;99.90
17918;DHT22;9084;50.956;3.106;2023-02-07T09:14:13;3.00;99.90
17918;DHT22;9084;50.956;3.106;2023-02-07T09:16:38;3.00;99.90
17918;DHT22;9084;50.956;3.106;2023-02-07T09:19:04;3.10;99.90
17918;DHT22;9084;50.956;3.106;2023-02-07T09:21:32;3.00;99.90
17918;DHT22;9084;50.956;3.106;2023-02-07T09:23:57;3.20;99.90
17918;DHT22;9084;50.956;3.106;2023-02-07T09:26:23;3.20;99.90
17918;DHT22;9084;50.956;3.106;2023-02-07T09:28:54;3.10;99.90
17918;DHT22;9084;50.956;3.106;2023-02-07T09:31:20;3.10;99.90
17918;DHT22;9084;50.956;3.106;2023-02-07T09:33:46;3.20;99.90
17918;DHT22;9084;50.956;3.106;2023-02-07T09:36:26;3.20;99.90
17918;DHT22;9084;50.956;3.106;2023-02-07T09:38:53;3.20;99.90
17918;DHT22;9084;50.956;3.106;2023-02-07T09:44:16;3.40;99.90
17918;DHT22;9084;50.956;3.106;2023-02-07T09:46:50;3.50;99.90
17918;DHT22;9084;50.956;3.106;2023-02-07T09:51:44;3.70;99.90
17918;DHT22;9084;50.956;3.106;2023-02-07T09:54:24;3.70;99.90
17918;DHT22;9084;50.956;3.106;2023-02-07T09:56:53;3.80;99.90
17918;DHT22;9084;50.956;3.106;2023-02-07T10:02:21;4.10;99.90
17918;DHT22;9084;50.956;3.106;2023-02-07T10:04:49;4.10;99.90
17918;DHT22;9084;50.956;3.106;2023-02-07T10:07:16;4.10;99.90
17918;DHT22;9084;50.956;3.106;2023-02-07T10:09:45;4.00;98.40
17918;DHT22;9084;50.956;3.106;2023-02-07T10:23:29;4.00;99.90
17918;DHT22;9084;50.956;3.106;2023-02-07T10:31:33;4.00;99.90
17918;DHT22;9084;50.956;3.106;2023-02-07T10:34:35;4.00;99.90
17918;DHT22;9084;50.956;3.106;2023-02-07T10:37:18;4.10;99.90
17918;DHT22;9084;50.956;3.106;2023-02-07T10:39:50;4.20;99.90
17918;DHT22;9084;50.956;3.106;2023-02-07T10:42:16;4.20;99.90
17918;DHT22;9084;50.956;3.106;2023-02-07T10:44:44;4.00;99.90
17918;DHT22;9084;50.956;3.106;2023-02-07T10:47:14;3.90;99.90
17918;DHT22;9084;50.956;3.106;2023-02-07T10:49:46;3.80;99.90
17918;DHT22;9084;50.956;3.106;2023-02-07T10:55:04;3.80;99.90
17918;DHT22;9084;50.956;3.106;2023-02-07T10:57:31;3.70;99.90
17918;DHT22;9084;50.956;3.106;2023-02-07T11:00:25;3.60;99.90
17918;DHT22;9084;50.956;3.106;2023-02-07T11:02:53;3.50;99.90
17918;DHT22;9084;50.956;3.106;2023-02-07T11:08:06;3.50;99.90
17918;DHT22;9084;50.956;3.106;2023-02-07T11:10:42;3.30;99.90
17918;DHT22;9084;50.956;3.106;2023-02-07T11:13:20;3.20;99.90
17918;DHT22;9084;50.956;3.106;2023-02-07T11:16:06;3.20;99.90
17918;DHT22;9084;50.956;3.106;2023-02-07T11:21:23;3.10;99.90
17918;DHT22;9084;50.956;3.106;2023-02-07T11:23:50;3.10;99.90
17918;DHT22;9084;50.956;3.106;2023-02-07T11:26:18;3.10;99.90
17918;DHT22;9084;50.956;3.106;2023-02-07T11:28:45;3.10;99.90
17918;DHT22;9084;50.956;3.106;2023-02-07T11:31:18;3.10;99.90
17918;DHT22;9084;50.956;3.106;2023-02-07T11:33:51;3.10;99.90
17918;DHT22;9084;50.956;3.106;2023-02-07T11:38:53;3.20;99.90
17918;DHT22;9084;50.956;3.106;2023-02-07T11:41:22;3.20;99.90
17918;DHT22;9084;50.956;3.106;2023-02-07T11:46:32;3.10;99.90
17918;DHT22;9084;50.956;3.106;2023-02-07T11:48:58;3.10;99.90
17918;DHT22;9084;50.956;3.106;2023-02-07T11:51:28;3.10;99.90
17918;DHT22;9084;50.956;3.106;2023-02-07T11:53:59;3.00;99.90
17918;DHT22;9084;50.956;3.106;2023-02-07T11:56:33;3.00;99.90
17918;DHT22;9084;50.956;3.106;2023-02-07T11:59:23;3.00;99.90
17918;DHT22;9084;50.956;3.106;2023-02-07T12:01:57;3.00;99.90
17918;DHT22;9084;50.956;3.106;2023-02-07T12:04:32;3.10;99.90
17918;DHT22;9084;50.956;3.106;2023-02-07T12:07:11;3.10;99.90
17918;DHT22;9084;50.956;3.106;2023-02-07T12:09:39;3.10;99.90
17918;DHT22;9084;50.956;3.106;2023-02-07T12:12:27;3.10;99.90
17918;DHT22;9084;50.956;3.106;2023-02-07T12:23:45;3.50;99.90
17918;DHT22;9084;50.956;3.106;2023-02-07T12:26:26;3.50;99.90
17918;DHT22;9084;50.956;3.106;2023-02-07T12:31:56;3.60;99.90
17918;DHT22;9084;50.956;3.106;2023-02-07T12:34:58;3.70;99.90
17918;DHT22;9084;50.956;3.106;2023-02-07T12:37:39;3.70;99.80
17918;DHT22;9084;50.956;3.106;2023-02-07T12:42:37;3.80;99.90
17918;DHT22;9084;50.956;3.106;2023-02-07T12:45:05;3.80;99.90
17918;DHT22;9084;50.956;3.106;2023-02-07T13:04:15;4.20;99.90
17918;DHT22;9084;50.956;3.106;2023-02-07T13:15:35;4.20;99.90
17918;DHT22;9084;50.956;3.106;2023-02-07T13:23:23;4.20;99.90
17918;DHT22;9084;50.956;3.106;2023-02-07T13:25:54;4.30;99.90
17918;DHT22;9084;50.956;3.106;2023-02-07T13:28:45;4.30;99.90
17918;DHT22;9084;50.956;3.106;2023-02-07T13:31:14;4.30;99.90
17918;DHT22;9084;50.956;3.106;2023-02-07T13:33:45;4.40;99.90
17918;DHT22;9084;50.956;3.106;2023-02-07T13:41:33;4.50;99.90
17918;DHT22;9084;50.956;3.106;2023-02-07T13:55:35;4.50;99.90
17918;DHT22;9084;50.956;3.106;2023-02-07T13:58:49;4.60;99.90
17918;DHT22;9084;50.956;3.106;2023-02-07T14:01:15;4.50;99.90
17918;DHT22;9084;50.956;3.106;2023-02-07T14:03:59;4.60;99.90
17918;DHT22;9084;50.956;3.106;2023-02-07T14:06:27;4.70;99.90
17918;DHT22;9084;50.956;3.106;2023-02-07T14:11:40;4.60;99.90
17918;DHT22;9084;50.956;3.106;2023-02-07T14:14:30;4.80;99.90
17918;DHT22;9084;50.956;3.106;2023-02-07T14:17:00;4.90;99.90
17918;DHT22;9084;50.956;3.106;2023-02-07T14:37:43;4.80;99.90
17918;DHT22;9084;50.956;3.106;2023-02-07T14:43:05;4.80;99.90
17918;DHT22;9084;50.956;3.106;2023-02-07T14:46:23;4.90;99.90
17918;DHT22;9084;50.956;3.106;2023-02-07T14:51:43;4.90;99.90
17918;DHT22;9084;50.956;3.106;2023-02-07T14:57:04;4.80;99.90
17918;DHT22;9084;50.956;3.106;2023-02-07T14:59:42;4.80;99.90
17918;DHT22;9084;50.956;3.106;2023-02-07T15:07:38;4.80;99.90
17918;DHT22;9084;50.956;3.106;2023-02-07T15:10:21;4.80;99.90
17918;DHT22;9084;50.956;3.106;2023-02-07T15:12:48;4.80;99.90
17918;DHT22;9084;50.956;3.106;2023-02-07T15:15:28;4.90;99.90
17918;DHT22;9084;50.956;3.106;2023-02-07T15:17:58;4.90;99.90
17918;DHT22;9084;50.956;3.106;2023-02-07T15:20:31;4.80;99.90
17918;DHT22;9084;50.956;3.106;2023-02-07T15:22:59;4.90;99.90
17918;DHT22;9084;50.956;3.106;2023-02-07T15:25:28;4.90;99.90
17918;DHT22;9084;50.956;3.106;2023-02-07T15:33:59;4.90;99.90
17918;DHT22;9084;50.956;3.106;2023-02-07T15:36:36;4.90;99.90
17918;DHT22;9084;50.956;3.106;2023-02-07T15:39:06;4.90;99.90
17918;DHT22;9084;50.956;3.106;2023-02-07T15:41:32;4.90;99.90
17918;DHT22;9084;50.956;3.106;2023-02-07T15:44:01;4.80;99.90
17918;DHT22;9084;50.956;3.106;2023-02-07T15:46:50;4.70;99.90
17918;DHT22;9084;50.956;3.106;2023-02-07T15:49:35;4.70;99.90
17918;DHT22;9084;50.956;3.106;2023-02-07T15:52:12;4.70;99.90
17918;DHT22;9084;50.956;3.106;2023-02-07T15:54:44;4.60;99.90
17918;DHT22;9084;50.956;3.106;2023-02-07T15:59:51;4.50;99.90
17918;DHT22;9084;50.956;3.106;2023-02-07T16:02:29;4.50;99.90
17918;DHT22;9084;50.956;3.106;2023-02-07T16:04:57;4.60;99.90
17918;DHT22;9084;50.956;3.106;2023-02-07T16:07:24;4.60;99.90
17918;DHT22;9084;50.956;3.106;2023-02-07T16:09:50;4.60;99.90
17918;DHT22;9084;50.956;3.106;2023-02-07T16:12:27;4.60;99.90
17918;DHT22;9084;50.956;3.106;2023-02-07T16:14:53;4.60;99.90
17918;DHT22;9084;50.956;3.106;2023-02-07T16:17:36;4.50;99.90
17918;DHT22;9084;50.956;3.106;2023-02-07T16:20:04;4.50;99.90
17918;DHT22;9084;50.956;3.106;2023-02-07T16:22:32;4.50;99.90
17918;DHT22;9084;50.956;3.106;2023-02-07T16:25:00;4.40;99.90
17918;DHT22;9084;50.956;3.106;2023-02-07T16:27:26;4.30;99.90
17918;DHT22;9084;50.956;3.106;2023-02-07T16:29:59;4.30;99.90
17918;DHT22;9084;50.956;3.106;2023-02-07T16:32:31;4.20;99.90
17918;DHT22;9084;50.956;3.106;2023-02-07T16:34:57;4.20;99.90
17918;DHT22;9084;50.956;3.106;2023-02-07T16:37:27;4.20;99.90
17918;DHT22;9084;50.956;3.106;2023-02-07T16:39:55;4.20;99.90
17918;DHT22;9084;50.956;3.106;2023-02-07T16:42:24;4.10;99.90
17918;DHT22;9084;50.956;3.106;2023-02-07T16:44:49;4.10;99.90
17918;DHT22;9084;50.956;3.106;2023-02-07T16:47:16;4.10;99.90
17918;DHT22;9084;50.956;3.106;2023-02-07T16:49:44;4.00;99.90
17918;DHT22;9084;50.956;3.106;2023-02-07T16:52:10;4.00;99.90
17918;DHT22;9084;50.956;3.106;2023-02-07T16:54:38;3.90;99.90
17918;DHT22;9084;50.956;3.106;2023-02-07T16:57:04;3.80;99.90
17918;DHT22;9084;50.956;3.106;2023-02-07T16:59:30;3.70;99.90
17918;DHT22;9084;50.956;3.106;2023-02-07T17:01:55;3.60;99.90
17918;DHT22;9084;50.956;3.106;2023-02-07T17:04:24;3.50;99.90
17918;DHT22;9084;50.956;3.106;2023-02-07T17:06:49;3.40;99.90
17918;DHT22;9084;50.956;3.106;2023-02-07T17:11:46;3.40;99.90
17918;DHT22;9084;50.956;3.106;2023-02-07T17:14:15;3.30;99.90
17918;DHT22;9084;50.956;3.106;2023-02-07T17:16:40;3.20;99.90
17918;DHT22;9084;50.956;3.106;2023-02-07T17:19:13;3.20;99.90
17918;DHT22;9084;50.956;3.106;2023-02-07T17:21:40;3.20;99.90
17918;DHT22;9084;50.956;3.106;2023-02-07T17:24:07;3.10;99.90
17918;DHT22;9084;50.956;3.106;2023-02-07T17:26:33;3.00;99.90
17918;DHT22;9084;50.956;3.106;2023-02-07T17:29:02;2.90;99.90
17918;DHT22;9084;50.956;3.106;2023-02-07T17:31:30;2.90;99.90
17918;DHT22;9084;50.956;3.106;2023-02-07T17:33:58;2.90;99.90
17918;DHT22;9084;50.956;3.106;2023-02-07T17:36:26;2.80;99.90
17918;DHT22;9084;50.956;3.106;2023-02-07T17:38:54;2.80;99.90
17918;DHT22;9084;50.956;3.106;2023-02-07T17:41:22;2.80;99.90
17918;DHT22;9084;50.956;3.106;2023-02-07T17:43:48;2.80;99.90
17918;DHT22;9084;50.956;3.106;2023-02-07T17:46:24;2.80;99.90
17918;DHT22;9084;50.956;3.106;2023-02-07T17:48:51;2.70;99.90
17918;DHT22;9084;50.956;3.106;2023-02-07T17:51:23;2.60;99.90
17918;DHT22;9084;50.956;3.106;2023-02-07T17:53:51;2.60;99.90
17918;DHT22;9084;50.956;3.106;2023-02-07T17:58:49;2.50;99.90
17918;DHT22;9084;50.956;3.106;2023-02-07T18:01:15;2.50;99.90
17918;DHT22;9084;50.956;3.106;2023-02-07T18:03:53;2.50;99.90
17918;DHT22;9084;50.956;3.106;2023-02-07T18:06:24;2.50;99.90
17918;DHT22;9084;50.956;3.106;2023-02-07T18:08:50;2.40;99.90
17918;DHT22;9084;50.956;3.106;2023-02-07T18:11:20;2.40;99.90
17918;DHT22;9084;50.956;3.106;2023-02-07T18:13:51;2.40;99.90
17918;DHT22;9084;50.956;3.106;2023-02-07T18:16:21;2.40;99.90
17918;DHT22;9084;50.956;3.106;2023-02-07T18:18:48;2.30;99.90
17918;DHT22;9084;50.956;3.106;2023-02-07T18:21:17;2.30;99.90
17918;DHT22;9084;50.956;3.106;2023-02-07T18:23:43;2.30;99.90
17918;DHT22;9084;50.956;3.106;2023-02-07T18:26:13;2.30;99.90
17918;DHT22;9084;50.956;3.106;2023-02-07T18:28:44;2.30;99.90
17918;DHT22;9084;50.956;3.106;2023-02-07T18:31:12;2.30;99.90
17918;DHT22;9084;50.956;3.106;2023-02-07T18:33:41;2.20;99.90
17918;DHT22;9084;50.956;3.106;2023-02-07T18:36:10;2.20;99.90
17918;DHT22;9084;50.956;3.106;2023-02-07T18:38:38;2.20;99.90
17918;DHT22;9084;50.956;3.106;2023-02-07T18:41:08;2.20;99.90
17918;DHT22;9084;50.956;3.106;2023-02-07T18:43:35;2.20;99.90
17918;DHT22;9084;50.956;3.106;2023-02-07T18:46:08;2.20;99.90
17918;DHT22;9084;50.956;3.106;2023-02-07T18:48:39;2.10;99.90
17918;DHT22;9084;50.956;3.106;2023-02-07T18:51:11;2.10;99.90
17918;DHT22;9084;50.956;3.106;2023-02-07T18:53:40;2.10;99.90
17918;DHT22;9084;50.956;3.106;2023-02-07T18:56:09;2.00;99.90
17918;DHT22;9084;50.956;3.106;2023-02-07T18:58:40;2.00;99.90
17918;DHT22;9084;50.956;3.106;2023-02-07T19:01:10;1.90;99.90
17918;DHT22;9084;50.956;3.106;2023-02-07T19:03:40;1.90;99.90
17918;DHT22;9084;50.956;3.106;2023-02-07T19:06:08;1.90;99.90
17918;DHT22;9084;50.956;3.106;2023-02-07T19:08:36;1.90;99.90
17918;DHT22;9084;50.956;3.106;2023-02-07T19:11:04;1.80;99.90
17918;DHT22;9084;50.956;3.106;2023-02-07T19:13:33;1.80;99.90
17918;DHT22;9084;50.956;3.106;2023-02-07T19:16:09;1.80;99.90
17918;DHT22;9084;50.956;3.106;2023-02-07T19:18:35;1.70;99.90
17918;DHT22;9084;50.956;3.106;2023-02-07T19:21:05;1.70;99.90
17918;DHT22;9084;50.956;3.106;2023-02-07T19:23:31;1.70;99.90